Map

Track Data

SID SEASON NUMBER BASIN SUBBASIN NAME ISO_TIME NATURE LAT LON WMO_WIND WMO_PRES WMO_AGENCY TRACK_TYPE DIST2LAND LANDFALL IFLAG USA_AGENCY USA_ATCF_ID USA_LAT USA_LON USA_RECORD USA_STATUS USA_WIND USA_PRES USA_SSHS USA_R34_NE USA_R34_SE USA_R34_SW USA_R34_NW USA_R50_NE USA_R50_SE USA_R50_SW USA_R50_NW USA_R64_NE USA_R64_SE USA_R64_SW USA_R64_NW USA_POCI USA_ROCI USA_RMW USA_EYE TOKYO_LAT TOKYO_LON TOKYO_GRADE TOKYO_WIND TOKYO_PRES TOKYO_R50_DIR TOKYO_R50_LONG TOKYO_R50_SHORT TOKYO_R30_DIR TOKYO_R30_LONG TOKYO_R30_SHORT TOKYO_LAND CMA_LAT CMA_LON CMA_CAT CMA_WIND CMA_PRES HKO_LAT HKO_LON HKO_CAT HKO_WIND HKO_PRES NEWDELHI_LAT NEWDELHI_LON NEWDELHI_GRADE NEWDELHI_WIND NEWDELHI_PRES NEWDELHI_CI NEWDELHI_DP NEWDELHI_POCI REUNION_LAT REUNION_LON REUNION_TYPE REUNION_WIND REUNION_PRES REUNION_TNUM REUNION_CI REUNION_RMW REUNION_R34_NE REUNION_R34_SE REUNION_R34_SW REUNION_R34_NW REUNION_R50_NE REUNION_R50_SE REUNION_R50_SW REUNION_R50_NW REUNION_R64_NE REUNION_R64_SE REUNION_R64_SW REUNION_R64_NW BOM_LAT BOM_LON BOM_TYPE BOM_WIND BOM_PRES BOM_TNUM BOM_CI BOM_RMW BOM_R34_NE BOM_R34_SE BOM_R34_SW BOM_R34_NW BOM_R50_NE BOM_R50_SE BOM_R50_SW BOM_R50_NW BOM_R64_NE BOM_R64_SE BOM_R64_SW BOM_R64_NW BOM_ROCI BOM_POCI BOM_EYE BOM_POS_METHOD BOM_PRES_METHOD NADI_LAT NADI_LON NADI_CAT NADI_WIND NADI_PRES WELLINGTON_LAT WELLINGTON_LON WELLINGTON_WIND WELLINGTON_PRES DS824_LAT DS824_LON DS824_STAGE DS824_WIND DS824_PRES TD9636_LAT TD9636_LON TD9636_STAGE TD9636_WIND TD9636_PRES TD9635_LAT TD9635_LON TD9635_WIND TD9635_PRES TD9635_ROCI NEUMANN_LAT NEUMANN_LON NEUMANN_CLASS NEUMANN_WIND NEUMANN_PRES MLC_LAT MLC_LON MLC_CLASS MLC_WIND MLC_PRES USA_GUST BOM_GUST BOM_GUST_PER REUNION_GUST REUNION_GUST_PER USA_SEAHGT USA_SEARAD_NE USA_SEARAD_SE USA_SEARAD_SW USA_SEARAD_NW STORM_SPEED STORM_DIR
2020055S13119 2020 15 SI WA FERDINAND 2020-02-23 18:00:00 NR -13.4000 118.700 PROVISIONAL 393 393 O_____________ tcvitals SI202020 -13.4000 118.700 35 1002 0 35 30 75 70 1007 165 30 9 226
2020055S13119 2020 15 SI WA FERDINAND 2020-02-23 21:00:00 NR -13.7227 118.355 PROVISIONAL 438 438 P_____________ SI202020 -13.7227 118.355 37 1002 0 37 45 62 55 1008 175 30 8 224
2020055S13119 2020 15 SI WA FERDINAND 2020-02-24 00:00:00 NR -14.0000 118.100 PROVISIONAL 482 482 O_____________ tcvitals SI202020 -14.0000 118.100 39 1002 0 40 60 50 40 1009 185 30 6 217
2020055S13119 2020 15 SI WA FERDINAND 2020-02-24 03:00:00 NR -14.2074 117.985 PROVISIONAL 507 507 P_____________ SI202020 -14.2074 117.985 42 1000 0 40 57 52 40 1008 185 27 4 206
2020055S13119 2020 15 SI WA FERDINAND 2020-02-24 06:00:00 NR -14.4000 117.900 PROVISIONAL 532 532 O_____________ tcvitals SI202020 -14.4000 117.900 45 999 0 40 55 55 40 1008 185 25 5 210
2020055S13119 2020 15 SI WA FERDINAND 2020-02-24 09:00:00 NR -14.6650 117.708 PROVISIONAL 560 560 P_____________ SI202020 -14.6650 117.708 49 995 0 47 55 55 47 1007 172 22 6 218
2020055S13119 2020 15 SI WA FERDINAND 2020-02-24 12:00:00 NR -14.9000 117.500 PROVISIONAL 569 569 O_____________ tcvitals SI202020 -14.9000 117.500 54 992 0 55 55 55 55 1007 160 20 5 226
2020055S13119 2020 15 SI WA FERDINAND 2020-02-24 15:00:00 NR -15.0225 117.327 PROVISIONAL 583 578 P_____________ SI202020 -15.0225 117.327 57 991 0 47 57 50 47 1007 162 22 4 236
2020055S13119 2020 15 SI WA FERDINAND 2020-02-24 18:00:00 NR -15.1000 117.200 PROVISIONAL 588 583 O_____________ tcvitals SI202020 -15.1000 117.200 60 990 0 40 60 45 40 1007 165 25 2 224
2020055S13119 2020 15 SI WA FERDINAND 2020-02-24 21:00:00 NR -15.2000 117.150 PROVISIONAL 587 577 P_____________ SI202020 -15.2000 117.150 62 988 0 45 60 42 45 1007 162 19 2 207
2020055S13119 2020 15 SI WA FERDINAND 2020-02-25 00:00:00 NR -15.3000 117.100 PROVISIONAL 577 570 O_____________ tcvitals SI202020 -15.3000 117.100 64 986 1 50 60 40 50 1008 160 14 3 223
2020055S13119 2020 15 SI WA FERDINAND 2020-02-25 03:00:00 NR -15.3925 116.965 PROVISIONAL 570 562 P_____________ SI202020 -15.3925 116.965 74 978 1 57 55 45 55 1007 167 10 4 235
2020055S13119 2020 15 SI WA FERDINAND 2020-02-25 06:00:00 NR -15.5000 116.800 PROVISIONAL 565 557 O_____________ tcvitals SI202020 -15.5000 116.800 84 970 2 65 50 50 60 1006 175 6 4 227
2020055S13119 2020 15 SI WA FERDINAND 2020-02-25 09:00:00 NR -15.6575 116.665 PROVISIONAL 546 537 P_____________ SI202020 -15.6575 116.665 86 968 2 65 50 50 60 1006 175 6 4 224
2020055S13119 2020 15 SI WA FERDINAND 2020-02-25 12:00:00 NR -15.8000 116.500 PROVISIONAL 537 526 O_____________ tcvitals SI202020 -15.8000 116.500 89 967 2 65 50 50 60 1006 175 6 4 240
2020055S13119 2020 15 SI WA FERDINAND 2020-02-25 15:00:00 NR -15.8800 116.265 PROVISIONAL 527 527 P_____________ SI202020 -15.8800 116.265 91 964 2 60 55 42 55 1005 172 5 5 258
2020055S13119 2020 15 SI WA FERDINAND 2020-02-25 18:00:00 NR -15.9000 116.000 PROVISIONAL 531 531 O_____________ tcvitals SI202020 -15.9000 116.000 93 962 2 55 60 35 50 1005 170 5 5 275
2020055S13119 2020 15 SI WA FERDINAND 2020-02-25 21:00:00 NR -15.8350 115.735 PROVISIONAL 547 547 P_____________ SI202020 -15.8350 115.735 93 962 2 52 62 40 50 1005 167 7 5 282
2020055S13119 2020 15 SI WA FERDINAND 2020-02-26 00:00:00 NR -15.8000 115.500 PROVISIONAL 551 543 O_____________ tcvitals SI202020 -15.8000 115.500 93 963 2 50 65 45 50 1006 165 10 4 256
2020055S13119 2020 15 SI WA FERDINAND 2020-02-26 03:00:00 NR -15.9274 115.343 PROVISIONAL 546 527 P_____________ SI202020 -15.9274 115.343 93 962 2 50 60 55 52 1005 170 10 4 224
2020055S13119 2020 15 SI WA FERDINAND 2020-02-26 06:00:00 NR -16.1000 115.200 PROVISIONAL 527 520 O_____________ tcvitals SI202020 -16.1000 115.200 93 962 2 50 55 65 55 1005 175 10 4 230
2020055S13119 2020 15 SI WA FERDINAND 2020-02-26 09:00:00 NR -16.2075 114.993 PROVISIONAL 523 517 P_____________ SI202020 -16.2075 114.993 93 962 2 57 62 65 55 1005 177 10 4 243
2020055S13119 2020 15 SI WA FERDINAND 2020-02-26 12:00:00 NR -16.3000 114.800 PROVISIONAL 521 515 O_____________ tcvitals SI202020 -16.3000 114.800 93 962 2 65 70 65 55 1005 180 10 4 235
2020055S13119 2020 15 SI WA FERDINAND 2020-02-26 15:00:00 NR -16.4150 114.685 PROVISIONAL 515 504 P_____________ SI202020 -16.4150 114.685 91 964 2 50 47 52 42 1005 172 10 3 224
2020055S13119 2020 15 SI WA FERDINAND 2020-02-26 18:00:00 NR -16.5000 114.600 PROVISIONAL 509 509 O_____________ tcvitals SI202020 -16.5000 114.600 89 966 2 35 25 40 30 1005 165 10 2 242
2020055S13119 2020 15 SI WA FERDINAND 2020-02-26 21:00:00 NR -16.5075 114.500 PROVISIONAL 513 513 P_____________ SI202020 -16.5075 114.500 84 970 2 35 35 42 37 1005 160 10 2 270
2020055S13119 2020 15 SI WA FERDINAND 2020-02-27 00:00:00 NR -16.5000 114.400 PROVISIONAL 518 518 O_____________ tcvitals SI202020 -16.5000 114.400 80 974 1 35 45 45 45 1006 155 10 2 264
2020055S13119 2020 15 SI WA FERDINAND 2020-02-27 03:00:00 NR -16.5275 114.300 PROVISIONAL 523 519 P_____________ SI202020 -16.5275 114.300 72 979 1 40 47 45 45 1006 155 7 2 242
2020055S13119 2020 15 SI WA FERDINAND 2020-02-27 06:00:00 NR -16.6000 114.200 PROVISIONAL 519 505 O_____________ tcvitals SI202020 -16.6000 114.200 64 984 1 45 50 45 45 1006 155 5 3 217
2020055S13119 2020 15 SI WA FERDINAND 2020-02-27 09:00:00 NR -16.7650 114.115 PROVISIONAL 505 496 P_____________ SI202020 -16.7650 114.115 59 987 0 45 47 45 45 1006 157 12 4 212
2020055S13119 2020 15 SI WA FERDINAND 2020-02-27 12:00:00 NR -16.9000 114.000 PROVISIONAL 502 502 O_____________ tcvitals SI202020 -16.9000 114.000 54 991 0 45 45 45 45 1006 160 20 3 245
2020055S13119 2020 15 SI WA FERDINAND 2020-02-27 15:00:00 NR -16.9025 113.807 PROVISIONAL 513 513 P_____________ SI202020 -16.9025 113.807 54 990 0 42 42 42 42 1005 147 20 4 285
2020055S13119 2020 15 SI WA FERDINAND 2020-02-27 18:00:00 NR -16.8000 113.600 PROVISIONAL 534 534 O_____________ tcvitals SI202020 -16.8000 113.600 54 990 0 40 40 40 40 1005 135 20 5 313
2020055S13119 2020 15 SI WA FERDINAND 2020-02-27 21:00:00 NR -16.5850 113.450 PROVISIONAL 564 564 P_____________ SI202020 -16.5850 113.450 52 992 0 40 40 45 42 1005 142 17 5 324
2020055S13119 2020 15 SI WA FERDINAND 2020-02-28 00:00:00 NR -16.4000 113.300 PROVISIONAL 588 588 O_____________ tcvitals SI202020 -16.4000 113.300 51 994 0 40 40 50 45 1006 150 14 4 296
2020055S13119 2020 15 SI WA FERDINAND 2020-02-28 03:00:00 NR -16.4275 113.115 PROVISIONAL 600 596 P_____________ SI202020 -16.4275 113.115 48 995 0 40 42 50 45 1005 150 14 4 255
2020055S13119 2020 15 SI WA FERDINAND 2020-02-28 06:00:00 NR -16.5000 112.900 PROVISIONAL 602 602 O_____________ tcvitals SI202020 -16.5000 112.900 45 996 0 40 45 50 45 1005 150 14 5 262
2020055S13119 2020 15 SI WA FERDINAND 2020-02-28 09:00:00 NR -16.4951 112.635 PROVISIONAL 620 620 P_____________ SI202020 -16.4951 112.635 45 996 0 37 40 47 40 1005 150 14 5 282
2020055S13119 2020 15 SI WA FERDINAND 2020-02-28 12:00:00 NR -16.4000 112.400 PROVISIONAL 637 637 O_____________ tcvitals SI202020 -16.4000 112.400 45 996 0 35 35 45 35 1005 150 14 4 317
2020055S13119 2020 15 SI WA FERDINAND 2020-02-28 15:00:00 NR -16.1798 112.323 PROVISIONAL 662 662 P_____________ SI202020 -16.1798 112.323 45 996 0 35 35 45 35 1005 142 14 5 339
2020055S13119 2020 15 SI WA FERDINAND 2020-02-28 18:00:00 NR -15.9000 112.200 PROVISIONAL 697 697 O_____________ tcvitals SI202020 -15.9000 112.200 45 996 0 35 35 45 35 1005 135 14 8 319
2020055S13119 2020 15 SI WA FERDINAND 2020-02-28 21:00:00 NR -15.5978 111.792 PROVISIONAL 741 741 P_____________ SI202020 -15.5978 111.792 45 996 0 32 32 40 32 1005 135 14 9 303
2020055S13119 2020 15 SI WA FERDINAND 2020-02-29 00:00:00 NR -15.4000 111.400 PROVISIONAL 777 770 O_____________ tcvitals SI202020 -15.4000 111.400 45 996 0 30 30 35 30 1005 135 14 5 282
2020055S13119 2020 15 SI WA FERDINAND 2020-02-29 03:00:00 NR -15.4999 111.305 PROVISIONAL 770 759 P_____________ SI202020 -15.4999 111.305 40 997 0 27 32 42 30 1004 142 24 2 207
2020055S13119 2020 15 SI WA FERDINAND 2020-02-29 06:00:00 NR -15.6000 111.300 PROVISIONAL 759 759 O_____________ tcvitals SI202020 -15.6000 111.300 35 998 0 25 35 50 30 1004 150 35 2 324
2020055S13119 2020 15 SI WA FERDINAND 2020-02-29 09:00:00 NR -15.3725 111.207 PROVISIONAL 784 753 P_____________ SI202020 -15.3725 111.207 32 999 -1 1004 150 35 5 339
2020055S13119 2020 15 SI WA FERDINAND 2020-02-29 12:00:00 NR -15.1000 111.100 PROVISIONAL 753 742 O_____________ tcvitals SI202020 -15.1000 111.100 29 1000 -1 1004 150 35 4 330
2020055S13119 2020 15 SI WA FERDINAND 2020-02-29 15:00:00 NR -15.0275 111.000 PROVISIONAL 743 743 P_____________ SI202020 -15.0275 111.000 29 1000 -1 1004 138 35 2 297
2020055S13119 2020 15 SI WA FERDINAND 2020-02-29 18:00:00 NR -15.0000 110.900 PROVISIONAL 744 734 O_____________ tcvitals SI202020 -15.0000 110.900 29 1000 -1 1005 126 35 2 299
2020055S13119 2020 15 SI WA FERDINAND 2020-02-29 21:00:00 NR -14.9200 110.800 PROVISIONAL 734 724 P_____________ SI202020 -14.9200 110.800 29 1000 -1 1005 113 35 3 316
2020055S13119 2020 15 SI WA FERDINAND 2020-03-01 00:00:00 NR -14.8000 110.700 PROVISIONAL 724 O_____________ tcvitals SI202020 -14.8000 110.700 29 1001 -1 1006 100 35 3 322

About IBTrACS Database

This database is a web-friendly format of International Best Track Archive for Climate Stewardship (IBTrACS), a global best track data archive curated by NOAA dating back to 1842.

Updated: 2021-10-08